Time;durP1;ratioP1;P1;durP2;ratioP2;P2;SDS_P1;SDS_P2;PMS_P1;PMS_P2;Temp;Humidity;BMP_temperature;BMP_pressure;BME280_temperature;BME280_humidity;BME280_pressure;Samples;Min_cycle;Max_cycle;Signal;HPM_P1;HPM_P2
2021/06/09 00:01:48;;;;;;;0.40;0.40;;;17.70;99.90;;;;;;5019850;28;20625;-84
2021/06/09 00:04:14;;;;;;;0.70;0.70;;;17.80;99.90;;;;;;5019125;28;20205;-85
2021/06/09 00:06:39;;;;;;;0.30;0.30;;;17.90;99.90;;;;;;5013487;28;20183;-84
2021/06/09 00:09:06;;;;;;;0.40;0.40;;;18.00;99.90;;;;;;5013708;28;20183;-84
2021/06/09 00:11:32;;;;;;;0.20;0.20;;;17.90;99.90;;;;;;5021400;28;20191;-84
2021/06/09 00:13:57;;;;;;;0.57;0.57;;;18.00;99.90;;;;;;5012555;28;20253;-84
2021/06/09 00:16:23;;;;;;;0.47;0.43;;;18.00;99.90;;;;;;5012073;28;20782;-87
2021/06/09 00:18:49;;;;;;;0.43;0.37;;;18.00;99.90;;;;;;5011833;28;20569;-84
2021/06/09 00:21:16;;;;;;;0.73;0.50;;;18.00;99.90;;;;;;5013144;28;20185;-84
2021/06/09 00:23:42;;;;;;;0.60;0.60;;;18.10;99.90;;;;;;5011227;28;20226;-84
2021/06/09 00:26:08;;;;;;;1.47;0.70;;;18.10;99.90;;;;;;5012957;28;20199;-84
2021/06/09 00:28:36;;;;;;;0.43;0.43;;;18.20;99.90;;;;;;5019012;28;20558;-84
2021/06/09 00:31:04;;;;;;;0.30;0.30;;;18.30;99.90;;;;;;5031258;28;20217;-84
2021/06/09 00:33:29;;;;;;;0.43;0.37;;;18.20;99.90;;;;;;5018297;28;20196;-84
2021/06/09 00:35:58;;;;;;;0.30;0.30;;;18.20;99.90;;;;;;5023362;28;20293;-84
2021/06/09 00:38:28;;;;;;;0.27;0.27;;;18.30;99.90;;;;;;5023354;28;20278;-84
2021/06/09 00:40:54;;;;;;;1.10;0.90;;;18.30;99.90;;;;;;5018929;28;20180;-84
2021/06/09 00:43:22;;;;;;;0.60;0.60;;;18.20;99.90;;;;;;5016737;28;20598;-84
2021/06/09 00:45:56;;;;;;;0.77;0.77;;;18.20;99.90;;;;;;5017466;28;20354;-84
2021/06/09 00:48:28;;;;;;;0.50;0.50;;;18.20;99.90;;;;;;5021523;28;20186;-84
2021/06/09 00:50:57;;;;;;;0.47;0.47;;;18.00;99.90;;;;;;5027562;28;20186;-87
2021/06/09 00:53:35;;;;;;;0.57;0.57;;;18.00;99.90;;;;;;5018059;28;20249;-84
2021/06/09 00:56:10;;;;;;;0.30;0.30;;;18.00;99.90;;;;;;5016429;28;20217;-85
2021/06/09 00:58:37;;;;;;;0.40;0.40;;;18.10;99.90;;;;;;5004258;28;20186;-84
2021/06/09 01:01:04;;;;;;;0.73;0.50;;;18.10;99.90;;;;;;5020705;28;20186;-84
2021/06/09 01:03:30;;;;;;;0.40;0.40;;;18.20;99.90;;;;;;5025227;28;20213;-84
2021/06/09 01:05:56;;;;;;;0.30;0.20;;;18.20;99.90;;;;;;5013842;28;20217;-84
2021/06/09 01:08:21;;;;;;;0.73;0.57;;;18.20;99.90;;;;;;5018835;28;20248;-84
2021/06/09 01:10:49;;;;;;;0.30;0.30;;;18.20;99.90;;;;;;5018799;28;20182;-84
2021/06/09 01:13:22;;;;;;;0.50;0.50;;;18.20;99.90;;;;;;5023961;28;20651;-84
2021/06/09 01:15:48;;;;;;;0.83;0.57;;;18.20;99.90;;;;;;5023276;28;20218;-84
2021/06/09 01:18:15;;;;;;;0.40;0.40;;;18.10;99.90;;;;;;5013926;28;20187;-84
2021/06/09 01:20:41;;;;;;;0.63;0.50;;;18.10;99.90;;;;;;5016732;28;20188;-86
2021/06/09 01:23:07;;;;;;;0.93;0.63;;;18.20;99.90;;;;;;5015372;28;20199;-86
2021/06/09 01:25:33;;;;;;;0.60;0.50;;;18.20;99.90;;;;;;5014866;28;21044;-84
2021/06/09 01:28:00;;;;;;;0.47;0.47;;;18.20;99.90;;;;;;5013980;28;20266;-84
2021/06/09 01:30:26;;;;;;;0.53;0.53;;;18.20;99.90;;;;;;5021466;28;20609;-84
2021/06/09 01:32:53;;;;;;;0.30;0.30;;;18.30;99.90;;;;;;5022088;28;20187;-84
2021/06/09 01:35:19;;;;;;;0.40;0.40;;;18.30;99.90;;;;;;5023340;28;20213;-84
2021/06/09 01:37:45;;;;;;;0.50;0.20;;;18.20;99.90;;;;;;5025695;28;20191;-84
2021/06/09 01:40:22;;;;;;;0.57;0.57;;;18.20;99.90;;;;;;5014743;28;20274;-85
2021/06/09 01:42:50;;;;;;;0.83;0.77;;;18.20;99.90;;;;;;5004688;28;20209;-86
2021/06/09 01:45:29;;;;;;;0.93;0.40;;;18.30;99.90;;;;;;5013753;28;20258;-84
2021/06/09 01:47:55;;;;;;;0.43;0.43;;;18.20;99.90;;;;;;5014098;28;20194;-84
2021/06/09 01:50:22;;;;;;;1.10;1.00;;;18.20;99.90;;;;;;5018482;28;20554;-84
2021/06/09 01:52:50;;;;;;;0.30;0.30;;;18.20;99.90;;;;;;5022894;28;20665;-85
2021/06/09 01:55:18;;;;;;;0.77;0.70;;;18.20;99.90;;;;;;5018706;28;20211;-84
2021/06/09 01:57:43;;;;;;;0.60;0.60;;;18.20;99.90;;;;;;5022270;28;20186;-84
2021/06/09 02:00:16;;;;;;;0.43;0.43;;;18.10;99.90;;;;;;5021703;28;20192;-84
2021/06/09 02:02:41;;;;;;;0.50;0.50;;;18.00;99.90;;;;;;5013518;28;20669;-84
2021/06/09 02:05:10;;;;;;;0.43;0.43;;;18.00;99.90;;;;;;5017429;28;20209;-84
2021/06/09 02:07:37;;;;;;;0.40;0.40;;;18.10;99.90;;;;;;5030003;28;20645;-84
2021/06/09 02:10:19;;;;;;;0.70;0.70;;;18.10;99.90;;;;;;5016384;28;20218;-84
2021/06/09 02:12:48;;;;;;;0.70;0.70;;;18.10;99.90;;;;;;5033447;28;20170;-84
2021/06/09 02:15:15;;;;;;;0.33;0.33;;;18.10;99.90;;;;;;5017088;28;20223;-84
2021/06/09 02:17:45;;;;;;;0.57;0.47;;;18.10;99.90;;;;;;5002387;28;20252;-85
2021/06/09 02:20:12;;;;;;;1.20;1.10;;;18.10;99.90;;;;;;5021801;28;20659;-84
2021/06/09 02:22:38;;;;;;;0.53;0.53;;;18.00;99.90;;;;;;4999873;28;20211;-83
2021/06/09 02:25:05;;;;;;;0.30;0.30;;;18.00;99.90;;;;;;5026275;28;20210;-84
2021/06/09 02:27:33;;;;;;;0.60;0.30;;;18.10;99.90;;;;;;5014736;28;20190;-84
2021/06/09 02:29:58;;;;;;;0.27;0.27;;;18.20;99.90;;;;;;5012777;28;20222;-84
2021/06/09 02:32:24;;;;;;;2.47;0.67;;;18.20;99.90;;;;;;5020381;28;20206;-84
2021/06/09 02:34:50;;;;;;;0.73;0.50;;;18.30;99.90;;;;;;5015344;28;20238;-84
2021/06/09 02:37:16;;;;;;;0.50;0.50;;;18.30;99.90;;;;;;5028729;28;20178;-84
2021/06/09 02:39:42;;;;;;;0.30;0.30;;;18.20;99.90;;;;;;5012988;28;20273;-84
2021/06/09 02:42:09;;;;;;;0.53;0.50;;;18.20;99.90;;;;;;4999190;28;20211;-84
2021/06/09 02:44:47;;;;;;;0.80;0.80;;;18.20;99.90;;;;;;5009311;28;20255;-84
2021/06/09 02:47:15;;;;;;;0.40;0.40;;;18.20;99.90;;;;;;5022170;28;20739;-86
2021/06/09 02:49:41;;;;;;;0.30;0.30;;;18.30;99.90;;;;;;5020309;28;20197;-84
2021/06/09 02:52:11;;;;;;;0.73;0.73;;;18.20;99.90;;;;;;5020370;28;20244;-85
2021/06/09 02:54:48;;;;;;;0.30;0.30;;;18.20;99.90;;;;;;5012163;28;20690;-85
2021/06/09 02:57:29;;;;;;;1.43;0.80;;;18.20;99.90;;;;;;5013332;28;20179;-84
2021/06/09 03:00:06;;;;;;;0.43;0.43;;;17.90;99.90;;;;;;5025782;28;20192;-84
2021/06/09 03:02:50;;;;;;;0.73;0.67;;;17.90;99.90;;;;;;5019838;28;20206;-84
2021/06/09 03:05:35;;;;;;;0.50;0.50;;;17.90;99.90;;;;;;5001021;28;20300;-84
2021/06/09 03:08:10;;;;;;;0.50;0.50;;;17.90;99.90;;;;;;5011630;28;20265;-84
2021/06/09 03:10:51;;;;;;;0.27;0.27;;;17.90;99.90;;;;;;5020403;28;20189;-84
2021/06/09 03:14:14;;;;;;;0.50;0.50;;;17.70;99.90;;;;;;5011206;28;20182;-84
2021/06/09 03:16:48;;;;;;;0.33;0.33;;;17.60;99.90;;;;;;5017248;28;20316;-84
2021/06/09 03:19:18;;;;;;;0.73;0.60;;;17.70;99.90;;;;;;5011471;28;20196;-85
2021/06/09 03:21:52;;;;;;;0.40;0.40;;;17.60;99.90;;;;;;5007321;28;20191;-84
2021/06/09 03:24:25;;;;;;;0.97;0.50;;;17.70;99.90;;;;;;5012062;28;20640;-85
2021/06/09 03:27:01;;;;;;;0.63;0.63;;;17.80;99.90;;;;;;5029982;28;20228;-84
2021/06/09 03:29:43;;;;;;;0.57;0.33;;;17.80;99.90;;;;;;5028890;28;20186;-84
2021/06/09 03:32:31;;;;;;;0.63;0.63;;;17.80;99.90;;;;;;5020537;28;20198;-84
2021/06/09 03:35:13;;;;;;;0.57;0.57;;;17.80;99.90;;;;;;5019967;28;20210;-85
2021/06/09 03:37:42;;;;;;;0.90;0.73;;;17.80;99.90;;;;;;5026742;28;20186;-84
2021/06/09 03:40:16;;;;;;;0.60;0.60;;;17.80;99.90;;;;;;5012450;28;20644;-84
2021/06/09 03:42:48;;;;;;;0.50;0.50;;;17.90;99.90;;;;;;5007777;28;20212;-84
2021/06/09 03:45:15;;;;;;;1.57;0.57;;;18.00;99.90;;;;;;5013582;28;20206;-84
2021/06/09 03:47:40;;;;;;;0.30;0.30;;;18.00;99.90;;;;;;5012287;28;20183;-84
2021/06/09 03:50:08;;;;;;;0.30;0.30;;;18.10;99.90;;;;;;5016064;28;20183;-84
2021/06/09 03:52:36;;;;;;;0.53;0.53;;;18.30;99.90;;;;;;5011444;28;20197;-84
2021/06/09 03:55:05;;;;;;;0.37;0.37;;;18.30;99.90;;;;;;5013388;28;20260;-84
2021/06/09 03:57:34;;;;;;;1.27;0.87;;;18.40;99.90;;;;;;5015620;28;20218;-84
2021/06/09 04:00:02;;;;;;;0.40;0.40;;;18.60;99.90;;;;;;5013954;28;20191;-84
2021/06/09 04:02:30;;;;;;;1.07;0.80;;;18.70;99.90;;;;;;5014893;28;20195;-84
2021/06/09 04:04:57;;;;;;;0.93;0.67;;;18.90;99.90;;;;;;5013021;28;20231;-84
2021/06/09 04:07:26;;;;;;;0.60;0.50;;;19.10;99.90;;;;;;5012800;28;20185;-85
2021/06/09 04:09:53;;;;;;;0.70;0.70;;;19.30;99.90;;;;;;5000070;28;20214;-85
2021/06/09 04:12:21;;;;;;;0.40;0.40;;;20.00;99.90;;;;;;5015212;28;20559;-84
2021/06/09 04:14:50;;;;;;;0.73;0.70;;;20.50;99.90;;;;;;5026069;28;20233;-85
2021/06/09 04:17:35;;;;;;;2.20;0.90;;;20.40;99.90;;;;;;5020580;28;20191;-84
2021/06/09 04:20:02;;;;;;;0.97;0.90;;;20.00;99.90;;;;;;5024815;28;20214;-84
2021/06/09 04:22:28;;;;;;;1.03;0.63;;;19.80;99.90;;;;;;5014632;28;20206;-84
2021/06/09 04:24:54;;;;;;;0.90;0.83;;;19.60;99.90;;;;;;5020084;28;20234;-84
2021/06/09 04:27:27;;;;;;;0.47;0.47;;;19.50;99.90;;;;;;5022366;28;20179;-84
2021/06/09 04:29:54;;;;;;;0.63;0.60;;;19.50;99.90;;;;;;5015409;28;20191;-84
2021/06/09 04:32:20;;;;;;;0.73;0.60;;;19.40;99.90;;;;;;5011804;28;20195;-84
2021/06/09 04:34:49;;;;;;;0.47;0.40;;;19.60;99.90;;;;;;5025680;28;20256;-86
2021/06/09 04:37:19;;;;;;;0.67;0.67;;;19.70;99.90;;;;;;5015544;28;20187;-85
2021/06/09 04:39:45;;;;;;;0.67;0.67;;;19.80;99.90;;;;;;5021545;28;20271;-84
2021/06/09 04:42:16;;;;;;;0.73;0.73;;;19.90;99.90;;;;;;5023608;28;20230;-84
2021/06/09 04:44:43;;;;;;;1.23;0.80;;;20.00;99.90;;;;;;5014815;28;20581;-84
2021/06/09 04:47:10;;;;;;;0.33;0.30;;;20.00;99.90;;;;;;5016833;28;20182;-84
2021/06/09 04:49:38;;;;;;;1.80;1.13;;;19.90;99.90;;;;;;5020163;28;20534;-85
2021/06/09 04:52:05;;;;;;;0.73;0.73;;;19.80;99.90;;;;;;5018827;28;20201;-84
2021/06/09 04:54:31;;;;;;;0.70;0.70;;;19.80;99.90;;;;;;5015677;28;20211;-84
2021/06/09 04:56:57;;;;;;;0.63;0.63;;;19.90;99.90;;;;;;5016335;28;20547;-84
2021/06/09 04:59:23;;;;;;;2.10;1.27;;;20.00;99.90;;;;;;5020783;28;20191;-84
2021/06/09 05:01:49;;;;;;;1.00;0.93;;;20.00;99.90;;;;;;5016230;28;20192;-85
2021/06/09 05:04:15;;;;;;;1.30;1.20;;;20.10;99.90;;;;;;5028042;28;20280;-84
2021/06/09 05:06:41;;;;;;;0.47;0.47;;;20.20;99.90;;;;;;5014426;28;20187;-86
2021/06/09 05:09:08;;;;;;;0.50;0.50;;;20.20;99.90;;;;;;5015238;28;20192;-86
2021/06/09 05:11:43;;;;;;;0.63;0.63;;;20.30;99.90;;;;;;5019493;28;20249;-87
2021/06/09 05:14:35;;;;;;;0.83;0.83;;;20.30;99.90;;;;;;5026980;28;20655;-87
2021/06/09 05:17:02;;;;;;;1.03;1.00;;;20.40;99.90;;;;;;5015456;28;20179;-87
2021/06/09 05:19:31;;;;;;;0.87;0.87;;;20.40;99.90;;;;;;5014598;28;20274;-84
2021/06/09 05:22:16;;;;;;;0.70;0.67;;;20.40;99.90;;;;;;5005645;28;20192;-85
2021/06/09 05:24:42;;;;;;;0.63;0.63;;;20.50;99.90;;;;;;5015308;28;20203;-85
2021/06/09 05:27:12;;;;;;;1.07;0.97;;;20.50;99.90;;;;;;5017363;28;20180;-85
2021/06/09 05:29:39;;;;;;;0.30;0.30;;;20.60;99.90;;;;;;5012873;28;20213;-85
2021/06/09 05:32:06;;;;;;;0.40;0.40;;;20.80;99.90;;;;;;5018801;28;20187;-85
2021/06/09 05:34:35;;;;;;;0.47;0.47;;;20.90;99.90;;;;;;5022976;28;20203;-85
2021/06/09 05:37:02;;;;;;;1.13;1.10;;;21.10;99.90;;;;;;5026386;28;20187;-86
2021/06/09 05:39:27;;;;;;;0.73;0.73;;;21.30;99.90;;;;;;5015279;28;20175;-85
2021/06/09 05:41:53;;;;;;;0.77;0.77;;;21.30;99.90;;;;;;5024226;28;20266;-86
2021/06/09 05:44:34;;;;;;;0.97;0.83;;;21.50;99.90;;;;;;5010142;28;20242;-86
2021/06/09 05:47:01;;;;;;;1.30;0.93;;;21.60;99.90;;;;;;5017500;28;20181;-87
2021/06/09 05:49:27;;;;;;;0.87;0.63;;;21.80;99.90;;;;;;5014344;28;20190;-84
2021/06/09 05:51:53;;;;;;;0.57;0.53;;;21.90;99.90;;;;;;5019890;28;20191;-85
2021/06/09 05:54:19;;;;;;;1.23;0.70;;;22.00;99.90;;;;;;5015658;28;20214;-83
2021/06/09 05:56:45;;;;;;;0.90;0.90;;;22.20;99.90;;;;;;5017009;28;20302;-85
2021/06/09 05:59:13;;;;;;;0.87;0.80;;;22.30;99.90;;;;;;5011301;28;20644;-85
2021/06/09 06:01:40;;;;;;;0.80;0.70;;;22.20;99.90;;;;;;5015588;28;20624;-85
2021/06/09 06:04:07;;;;;;;1.27;0.60;;;22.20;99.90;;;;;;5012044;28;20222;-85
2021/06/09 06:06:33;;;;;;;0.63;0.63;;;22.20;99.90;;;;;;5014207;28;20651;-85
2021/06/09 06:08:59;;;;;;;0.83;0.83;;;22.20;99.90;;;;;;5009113;28;20183;-85
2021/06/09 06:11:26;;;;;;;1.17;0.93;;;22.20;99.90;;;;;;5017399;28;20191;-84
2021/06/09 06:13:52;;;;;;;0.80;0.80;;;22.30;99.90;;;;;;5010060;28;20183;-85
2021/06/09 06:16:20;;;;;;;0.93;0.77;;;22.30;99.90;;;;;;5012159;28;20222;-85
2021/06/09 06:18:47;;;;;;;1.00;1.00;;;22.40;99.90;;;;;;5013301;28;20179;-85
2021/06/09 06:21:14;;;;;;;1.43;0.93;;;22.50;99.90;;;;;;5011337;28;20198;-85
2021/06/09 06:23:40;;;;;;;0.60;0.60;;;22.40;99.90;;;;;;5014185;28;20195;-86
2021/06/09 06:26:06;;;;;;;1.30;1.20;;;22.60;99.90;;;;;;5013992;28;20698;-84
2021/06/09 06:28:33;;;;;;;0.60;0.60;;;22.40;99.90;;;;;;5012349;28;20237;-85
2021/06/09 06:31:01;;;;;;;1.37;1.27;;;22.50;99.90;;;;;;5012226;28;20175;-85
2021/06/09 06:33:27;;;;;;;0.90;0.90;;;22.40;99.90;;;;;;5009966;28;20190;-85
2021/06/09 06:35:57;;;;;;;0.90;0.90;;;22.30;99.90;;;;;;5011864;28;20252;-85
2021/06/09 06:38:23;;;;;;;0.60;0.60;;;22.40;99.90;;;;;;5025280;28;20190;-85
2021/06/09 06:40:49;;;;;;;1.80;1.23;;;22.70;99.90;;;;;;5011733;28;20179;-84
2021/06/09 06:43:16;;;;;;;0.77;0.60;;;22.80;99.90;;;;;;5013003;28;20195;-85
2021/06/09 06:45:42;;;;;;;0.93;0.80;;;22.90;99.90;;;;;;5003895;28;20246;-85
2021/06/09 06:48:08;;;;;;;0.70;0.70;;;23.30;99.90;;;;;;5012382;28;20670;-85
2021/06/09 06:50:34;;;;;;;1.93;1.20;;;23.40;99.90;;;;;;5020693;28;20559;-85
2021/06/09 06:53:04;;;;;;;1.27;1.17;;;23.80;99.90;;;;;;5016730;28;20185;-85
2021/06/09 06:55:30;;;;;;;0.97;0.60;;;23.80;99.90;;;;;;5013986;28;20560;-85
2021/06/09 06:57:56;;;;;;;1.50;1.13;;;23.90;99.90;;;;;;5016097;28;20193;-84
2021/06/09 07:00:23;;;;;;;0.53;0.53;;;23.90;99.90;;;;;;5012406;28;20610;-86
2021/06/09 07:02:52;;;;;;;0.80;0.80;;;23.90;99.90;;;;;;5025151;28;20202;-86
2021/06/09 07:05:20;;;;;;;1.40;1.30;;;23.80;99.90;;;;;;5013514;28;20206;-86
2021/06/09 07:07:46;;;;;;;1.33;1.00;;;23.70;99.90;;;;;;5025842;28;20611;-86
2021/06/09 07:10:15;;;;;;;1.00;1.00;;;23.70;99.90;;;;;;5014170;28;20198;-86
2021/06/09 07:12:43;;;;;;;0.70;0.63;;;23.80;99.90;;;;;;5017150;28;20182;-86
2021/06/09 07:15:10;;;;;;;1.00;0.93;;;23.90;99.90;;;;;;5023489;28;20250;-85
2021/06/09 07:17:41;;;;;;;1.63;1.53;;;23.80;99.90;;;;;;5013163;28;20213;-85
2021/06/09 07:20:11;;;;;;;1.10;0.97;;;23.60;99.90;;;;;;5010898;28;20210;-85
2021/06/09 07:22:38;;;;;;;0.93;0.80;;;23.80;99.90;;;;;;5035395;28;20266;-86
2021/06/09 07:25:06;;;;;;;1.33;1.00;;;23.80;99.90;;;;;;5030912;28;20195;-86
2021/06/09 07:27:36;;;;;;;2.23;1.03;;;23.80;99.90;;;;;;5032166;28;20177;-84
2021/06/09 07:30:10;;;;;;;1.53;1.43;;;23.90;99.90;;;;;;5010999;28;20179;-84
2021/06/09 07:32:40;;;;;;;1.50;1.30;;;23.90;99.90;;;;;;5019065;28;20568;-83
2021/06/09 07:35:06;;;;;;;0.60;0.60;;;24.00;99.90;;;;;;5010540;28;20207;-83
2021/06/09 07:37:36;;;;;;;1.40;0.73;;;24.30;99.90;;;;;;5010762;28;20667;-83
2021/06/09 07:40:06;;;;;;;0.97;0.97;;;24.30;99.90;;;;;;5010838;28;20200;-83
2021/06/09 07:42:32;;;;;;;1.17;1.07;;;24.30;99.90;;;;;;5011694;28;20713;-84
2021/06/09 07:45:10;;;;;;;1.27;1.13;;;24.20;99.90;;;;;;5013400;28;20194;-83
2021/06/09 07:47:36;;;;;;;1.17;1.10;;;24.40;99.90;;;;;;5015708;28;20186;-84
2021/06/09 07:50:06;;;;;;;0.90;0.83;;;24.60;99.90;;;;;;5014589;28;20644;-83
2021/06/09 07:52:35;;;;;;;2.83;1.43;;;24.40;99.90;;;;;;5012687;28;20266;-85
2021/06/09 07:55:01;;;;;;;0.87;0.70;;;23.60;99.90;;;;;;5012166;28;20249;-84
2021/06/09 07:57:33;;;;;;;1.73;0.90;;;23.90;99.90;;;;;;5010110;28;20187;-85
2021/06/09 08:00:01;;;;;;;0.60;0.60;;;24.20;99.90;;;;;;5017965;28;20229;-84
2021/06/09 08:02:26;;;;;;;0.90;0.90;;;24.60;99.90;;;;;;5011048;28;20207;-85
2021/06/09 08:04:53;;;;;;;1.13;1.13;;;24.80;99.90;;;;;;5016516;28;20207;-83
2021/06/09 08:07:19;;;;;;;1.43;1.13;;;24.60;99.90;;;;;;5022429;28;20187;-83
2021/06/09 08:09:45;;;;;;;2.27;1.50;;;24.90;99.90;;;;;;5014469;28;20190;-83
2021/06/09 08:12:11;;;;;;;1.00;0.80;;;24.90;99.90;;;;;;5015117;28;20179;-82
2021/06/09 08:14:38;;;;;;;1.77;1.67;;;25.20;99.90;;;;;;5013249;28;20219;-82
2021/06/09 08:17:06;;;;;;;0.57;0.57;;;25.40;99.90;;;;;;5013649;28;20671;-82
2021/06/09 08:19:32;;;;;;;0.80;0.80;;;25.50;99.90;;;;;;5020327;28;20676;-83
2021/06/09 08:21:57;;;;;;;0.57;0.57;;;25.70;99.90;;;;;;5022130;28;20191;-83
2021/06/09 08:24:23;;;;;;;1.00;1.00;;;25.80;99.90;;;;;;5015648;28;20675;-83
2021/06/09 08:26:50;;;;;;;1.07;1.00;;;25.70;99.90;;;;;;5019728;28;20261;-82
2021/06/09 08:29:15;;;;;;;1.27;0.90;;;25.90;99.90;;;;;;5009111;28;20266;-82
2021/06/09 08:31:41;;;;;;;1.10;1.00;;;26.00;99.90;;;;;;5010492;28;20222;-82
2021/06/09 08:34:08;;;;;;;1.30;1.23;;;26.30;99.90;;;;;;5015270;28;20579;-82
2021/06/09 08:36:34;;;;;;;0.83;0.83;;;26.40;99.90;;;;;;5018550;28;20194;-82
2021/06/09 08:39:01;;;;;;;1.23;0.90;;;25.90;99.90;;;;;;5018156;28;20191;-83
2021/06/09 08:41:32;;;;;;;1.50;1.10;;;26.30;99.90;;;;;;5014054;28;20190;-82
2021/06/09 08:43:59;;;;;;;0.60;0.60;;;26.70;99.90;;;;;;5013432;28;20229;-83
2021/06/09 08:46:25;;;;;;;1.47;1.37;;;27.00;99.90;;;;;;5017913;28;20187;-83
2021/06/09 08:48:54;;;;;;;0.80;0.73;;;27.00;99.90;;;;;;5013754;28;20187;-82
2021/06/09 08:51:21;;;;;;;1.07;0.97;;;26.30;99.90;;;;;;5015432;28;20182;-83
2021/06/09 08:53:50;;;;;;;3.60;1.07;;;26.60;99.90;;;;;;5017801;28;20276;-83
2021/06/09 08:56:16;;;;;;;0.80;0.80;;;26.70;99.90;;;;;;5012472;28;20210;-83
2021/06/09 08:58:42;;;;;;;0.70;0.70;;;27.00;99.90;;;;;;5015995;28;20191;-83
2021/06/09 09:01:10;;;;;;;0.70;0.70;;;26.50;99.90;;;;;;5014782;28;20270;-82
2021/06/09 09:03:37;;;;;;;0.70;0.70;;;26.50;99.90;;;;;;5014190;28;20202;-83
2021/06/09 09:06:04;;;;;;;0.60;0.60;;;25.60;99.90;;;;;;5013952;28;20210;-83
2021/06/09 09:08:29;;;;;;;1.10;1.00;;;25.10;99.90;;;;;;5022985;28;20206;-81
2021/06/09 09:10:55;;;;;;;0.97;0.80;;;25.00;99.90;;;;;;5026957;28;20694;-82
2021/06/09 09:13:21;;;;;;;0.93;0.77;;;25.10;99.90;;;;;;5014504;28;20185;-83
2021/06/09 09:15:47;;;;;;;1.60;0.63;;;25.50;99.90;;;;;;5012353;28;20239;-83
2021/06/09 09:18:12;;;;;;;1.07;0.73;;;25.70;99.90;;;;;;5021808;28;20225;-82
2021/06/09 09:20:44;;;;;;;1.43;1.33;;;26.40;99.90;;;;;;5019726;28;20233;-83
2021/06/09 09:23:37;;;;;;;1.23;1.00;;;26.10;99.90;;;;;;5021496;28;20198;-82
2021/06/09 09:26:24;;;;;;;7.53;0.80;;;25.60;99.90;;;;;;5002927;28;20344;-83
2021/06/09 09:28:50;;;;;;;1.07;0.87;;;25.80;99.90;;;;;;5017509;28;20627;-82
2021/06/09 09:31:19;;;;;;;1.40;1.30;;;26.00;99.90;;;;;;5011007;28;20203;-82
2021/06/09 09:33:45;;;;;;;0.93;0.93;;;26.20;99.90;;;;;;5013469;28;20190;-83
2021/06/09 09:36:25;;;;;;;0.90;0.90;;;26.70;99.90;;;;;;5014961;28;20218;-82
2021/06/09 09:38:51;;;;;;;1.50;1.10;;;26.20;99.90;;;;;;5013135;28;20190;-82
2021/06/09 09:41:18;;;;;;;0.70;0.70;;;26.20;99.90;;;;;;5009632;28;20201;-82
2021/06/09 09:43:52;;;;;;;0.90;0.87;;;26.30;99.90;;;;;;5011838;28;20214;-83
2021/06/09 09:46:23;;;;;;;1.00;1.00;;;26.10;99.90;;;;;;5028985;28;20221;-83
2021/06/09 09:49:08;;;;;;;1.27;0.87;;;26.00;99.90;;;;;;5015678;28;20198;-83
2021/06/09 09:52:00;;;;;;;1.30;1.23;;;26.90;99.90;;;;;;5013868;28;20191;-83
2021/06/09 09:54:35;;;;;;;1.93;1.20;;;27.30;99.90;;;;;;5007248;28;20289;-83
2021/06/09 09:57:03;;;;;;;1.47;1.20;;;26.90;99.90;;;;;;5004317;28;20321;-83
2021/06/09 09:59:30;;;;;;;0.80;0.80;;;27.10;99.90;;;;;;5024510;28;20193;-82
2021/06/09 10:01:58;;;;;;;2.00;1.10;;;27.20;99.90;;;;;;5009817;28;20194;-82
2021/06/09 10:04:30;;;;;;;0.50;0.50;;;27.70;99.90;;;;;;5011767;28;20656;-82
2021/06/09 10:06:57;;;;;;;1.10;0.97;;;27.80;99.90;;;;;;5010081;28;20183;-82
2021/06/09 10:09:43;;;;;;;1.37;1.10;;;27.70;99.90;;;;;;5008728;28;20187;-83
2021/06/09 10:12:13;;;;;;;1.07;0.70;;;27.00;99.90;;;;;;5007512;28;20915;-83
2021/06/09 10:14:42;;;;;;;1.20;1.10;;;26.70;99.90;;;;;;5009782;28;20435;-83
2021/06/09 10:17:13;;;;;;;1.13;0.97;;;26.20;99.90;;;;;;5011191;28;20232;-82
2021/06/09 10:19:42;;;;;;;1.80;1.60;;;25.60;99.90;;;;;;5009997;28;20544;-82
2021/06/09 10:22:31;;;;;;;0.53;0.43;;;25.90;99.90;;;;;;5007451;28;20538;-82
2021/06/09 10:25:00;;;;;;;1.03;0.93;;;26.50;99.90;;;;;;5018023;28;20590;-82
2021/06/09 10:27:35;;;;;;;0.60;0.60;;;26.60;99.90;;;;;;5020470;28;20181;-82
2021/06/09 10:30:01;;;;;;;0.87;0.70;;;26.90;99.90;;;;;;5021515;28;20179;-82
2021/06/09 10:32:27;;;;;;;0.77;0.77;;;26.80;99.90;;;;;;5019005;28;20232;-82
2021/06/09 10:34:53;;;;;;;0.60;0.60;;;26.90;99.90;;;;;;5022058;28;20206;-83
2021/06/09 10:37:18;;;;;;;0.97;0.80;;;27.00;99.90;;;;;;5021306;28;20305;-82
2021/06/09 10:39:44;;;;;;;0.73;0.73;;;27.10;99.90;;;;;;5015943;28;20282;-82
2021/06/09 10:42:18;;;;;;;2.23;0.83;;;27.60;99.90;;;;;;5016545;28;20353;-83
2021/06/09 10:44:46;;;;;;;0.73;0.50;;;27.90;99.90;;;;;;5012678;28;20319;-83
2021/06/09 10:47:16;;;;;;;1.13;0.80;;;28.30;99.90;;;;;;5012526;28;20191;-83
2021/06/09 10:49:42;;;;;;;1.50;1.30;;;28.70;99.90;;;;;;5010819;28;20229;-82
2021/06/09 10:52:08;;;;;;;0.80;0.70;;;28.20;99.90;;;;;;5006880;28;20282;-80
2021/06/09 10:54:34;;;;;;;1.17;0.93;;;28.00;99.90;;;;;;5010873;28;20602;-85
2021/06/09 10:57:00;;;;;;;0.80;0.73;;;28.20;99.90;;;;;;5007554;28;20240;-81
2021/06/09 10:59:28;;;;;;;1.13;0.90;;;28.30;99.90;;;;;;5010832;28;20286;-82
2021/06/09 11:02:10;;;;;;;0.83;0.83;;;28.20;99.90;;;;;;5014708;28;20193;-83
2021/06/09 11:04:41;;;;;;;1.27;1.17;;;28.20;99.90;;;;;;5010914;28;20213;-82
2021/06/09 11:07:25;;;;;;;0.63;0.63;;;27.30;99.90;;;;;;5011316;28;20194;-83
2021/06/09 11:09:51;;;;;;;2.03;1.00;;;27.60;99.90;;;;;;5011193;28;20179;-83
2021/06/09 11:12:19;;;;;;;0.93;0.83;;;27.80;99.90;;;;;;5009957;28;20575;-82
2021/06/09 11:14:58;;;;;;;0.77;0.77;;;27.90;99.90;;;;;;5003902;28;20711;-83
2021/06/09 11:17:39;;;;;;;0.87;0.70;;;27.70;99.90;;;;;;5011770;28;20340;-83
2021/06/09 11:20:26;;;;;;;0.67;0.60;;;27.50;99.90;;;;;;5019256;28;20190;-82
2021/06/09 11:22:53;;;;;;;0.83;0.70;;;27.90;99.90;;;;;;5009136;28;20213;-82
2021/06/09 11:25:28;;;;;;;0.47;0.47;;;27.60;99.90;;;;;;5010650;28;20203;-82
2021/06/09 11:27:55;;;;;;;1.23;0.60;;;27.50;99.90;;;;;;4997638;28;20279;-83
2021/06/09 11:30:20;;;;;;;0.77;0.77;;;27.30;99.90;;;;;;5010638;28;20217;-83
2021/06/09 11:32:46;;;;;;;2.00;1.10;;;27.50;99.90;;;;;;5007092;28;20664;-83
2021/06/09 11:35:11;;;;;;;0.60;0.57;;;27.70;99.90;;;;;;5009058;28;20264;-83
2021/06/09 11:37:37;;;;;;;0.90;0.90;;;27.80;99.90;;;;;;5010907;28;20341;-82
2021/06/09 11:40:05;;;;;;;1.00;0.80;;;27.50;99.90;;;;;;5008904;28;20597;-83
2021/06/09 11:42:31;;;;;;;0.80;0.80;;;28.00;99.90;;;;;;5009237;28;20577;-83
2021/06/09 11:44:56;;;;;;;1.50;0.50;;;28.20;99.90;;;;;;5006856;28;20211;-83
2021/06/09 11:47:28;;;;;;;2.67;1.13;;;28.50;99.90;;;;;;5000826;28;20198;-82
2021/06/09 11:50:27;;;;;;;1.70;1.27;;;28.00;99.90;;;;;;5008999;28;20228;-83
2021/06/09 11:53:13;;;;;;;1.57;0.97;;;27.90;99.90;;;;;;5010062;28;20274;-83
2021/06/09 11:55:42;;;;;;;0.97;0.90;;;27.70;99.90;;;;;;5009836;28;20648;-83
2021/06/09 11:58:09;;;;;;;1.00;1.00;;;27.00;99.90;;;;;;5008947;28;20242;-81
2021/06/09 12:00:34;;;;;;;1.30;0.90;;;27.10;99.90;;;;;;5008051;28;20341;-81
2021/06/09 12:03:19;;;;;;;1.27;0.90;;;27.30;99.90;;;;;;5004866;28;20294;-80
2021/06/09 12:05:45;;;;;;;0.70;0.57;;;27.30;99.90;;;;;;5008728;28;20222;-80
2021/06/09 12:08:11;;;;;;;1.17;0.70;;;27.70;99.90;;;;;;5006115;28;20245;-81
2021/06/09 12:10:37;;;;;;;0.70;0.70;;;28.20;99.90;;;;;;5009283;28;20191;-80
2021/06/09 12:13:03;;;;;;;0.82;0.82;;;28.70;99.90;;;;;;5007508;28;20194;-81
2021/06/09 12:15:28;;;;;;;0.63;0.63;;;28.40;99.90;;;;;;5011192;28;20699;-81
2021/06/09 12:17:55;;;;;;;1.03;0.77;;;28.80;99.90;;;;;;5008856;28;20218;-81
2021/06/09 12:20:21;;;;;;;0.43;0.43;;;28.90;99.90;;;;;;4999210;28;20195;-81
2021/06/09 12:22:55;;;;;;;1.17;0.60;;;28.70;99.90;;;;;;5007875;28;20211;-81
2021/06/09 12:25:27;;;;;;;1.35;0.60;;;29.20;99.90;;;;;;5009177;28;20717;-81
2021/06/09 12:28:05;;;;;;;2.00;0.88;;;29.60;99.90;;;;;;5007565;28;20187;-81
2021/06/09 12:30:32;;;;;;;1.50;1.40;;;28.50;99.90;;;;;;5010969;28;20194;-81
2021/06/09 12:32:58;;;;;;;1.45;0.85;;;28.30;99.90;;;;;;5011287;28;20183;-80
2021/06/09 12:35:24;;;;;;;1.02;0.90;;;28.50;99.90;;;;;;5009010;28;20645;-81
2021/06/09 12:37:56;;;;;;;0.60;0.55;;;28.40;99.90;;;;;;5012682;28;20182;-81
2021/06/09 12:40:42;;;;;;;0.63;0.63;;;28.10;99.90;;;;;;5011659;28;20183;-79
2021/06/09 12:43:10;;;;;;;1.00;1.00;;;27.90;99.90;;;;;;5011832;28;20234;-81
2021/06/09 12:45:41;;;;;;;1.47;0.87;;;27.90;99.90;;;;;;5011579;28;20199;-81
2021/06/09 12:48:17;;;;;;;1.73;1.00;;;28.00;99.90;;;;;;5012388;28;20205;-80
2021/06/09 12:50:45;;;;;;;0.73;0.73;;;28.40;99.90;;;;;;5010785;28;20195;-82
2021/06/09 12:53:14;;;;;;;0.80;0.80;;;28.20;99.90;;;;;;5010307;28;20183;-81
2021/06/09 12:55:43;;;;;;;0.80;0.80;;;27.90;99.90;;;;;;5011262;28;20203;-81
2021/06/09 12:58:10;;;;;;;0.90;0.90;;;27.90;99.90;;;;;;5010210;28;20650;-80
2021/06/09 13:00:49;;;;;;;0.87;0.87;;;27.80;99.90;;;;;;5013264;28;20534;-81